LIPH/TSF METAR and TAF weather

Enter ICAO airport designator
Station Type Date Time Source
LIPH METAR 2021/04/13 06:20 UTC NOAA

LIPH 130620Z AUTO 04003KT 360V080 9999 -RA OVC041/// 08/06 Q1017


Station Type Date Time Source
LIPH Decoded METAR 2021/04/13 06:20 UTC NOAA

Treviso / S. Angelo, Italy (LIPH) 45-39N 012-11E 23M
Apr 13, 2021 - 02:20 AM EDT / 2021.04.13 0620 UTC
Wind: from the NE (040 degrees) at 3 MPH (3 KT) (direction variable):0
Visibility: greater than 7 mile(s):0
Sky conditions: overcast
Weather: light rain
Temperature: 46 F (8 C)
Dew Point: 42 F (6 C)
Relative Humidity: 87%
Pressure (altimeter): 30.03 in. Hg (1017 hPa)
ob: LIPH 130620Z AUTO 04003KT 360V080 9999 -RA OVC041/// 08/06 Q1017
cycle: 6

Station Type Date Time Source
LIPH TAF 2021/04/13 06:21 UTC NOAA

TAF LIPH 130500Z 1306/1406 03008KT 9999 BKN030
TEMPO 1306/1308 RA
BECMG 1308/1310 27010KT
BECMG 1316/1318 VRB05KT

Example: see airport list